sensor_id;sensor_type;location;lat;lon;timestamp;P1;durP1;ratioP1;P2;durP2;ratioP2
4021;SDS011;2025;48.260;16.432;2023-01-15T01:53:35;9.57;;;3.92;;
4021;SDS011;2025;48.260;16.432;2023-01-15T02:44:12;9.30;;;5.03;;
4021;SDS011;2025;48.260;16.432;2023-01-15T02:46:43;10.15;;;6.07;;
4021;SDS011;2025;48.260;16.432;2023-01-15T02:49:16;8.43;;;5.38;;
4021;SDS011;2025;48.260;16.432;2023-01-15T02:52:01;8.02;;;4.75;;
4021;SDS011;2025;48.260;16.432;2023-01-15T02:54:36;8.07;;;4.95;;
4021;SDS011;2025;48.260;16.432;2023-01-15T02:57:09;8.65;;;5.13;;
4021;SDS011;2025;48.260;16.432;2023-01-15T02:59:40;9.23;;;5.85;;
4021;SDS011;2025;48.260;16.432;2023-01-15T03:14:00;9.20;;;5.10;;
4021;SDS011;2025;48.260;16.432;2023-01-15T05:38:55;6.88;;;4.05;;
4021;SDS011;2025;48.260;16.432;2023-01-15T07:35:15;6.78;;;4.03;;
4021;SDS011;2025;48.260;16.432;2023-01-15T07:38:00;6.32;;;3.97;;
4021;SDS011;2025;48.260;16.432;2023-01-15T07:40:27;6.65;;;4.18;;
4021;SDS011;2025;48.260;16.432;2023-01-15T07:42:57;6.70;;;4.25;;
4021;SDS011;2025;48.260;16.432;2023-01-15T07:45:41;8.20;;;4.07;;
4021;SDS011;2025;48.260;16.432;2023-01-15T07:48:25;6.80;;;4.15;;
4021;SDS011;2025;48.260;16.432;2023-01-15T07:51:10;6.65;;;3.40;;
4021;SDS011;2025;48.260;16.432;2023-01-15T07:53:37;7.57;;;3.70;;
4021;SDS011;2025;48.260;16.432;2023-01-15T07:56:04;6.57;;;5.03;;
4021;SDS011;2025;48.260;16.432;2023-01-15T07:58:32;8.55;;;4.95;;
4021;SDS011;2025;48.260;16.432;2023-01-15T08:00:59;6.97;;;2.85;;
4021;SDS011;2025;48.260;16.432;2023-01-15T08:03:26;7.57;;;5.97;;
4021;SDS011;2025;48.260;16.432;2023-01-15T08:05:53;6.10;;;3.97;;
4021;SDS011;2025;48.260;16.432;2023-01-15T08:08:21;7.85;;;4.30;;
4021;SDS011;2025;48.260;16.432;2023-01-15T08:10:48;7.25;;;3.75;;
4021;SDS011;2025;48.260;16.432;2023-01-15T08:13:32;7.32;;;3.63;;
4021;SDS011;2025;48.260;16.432;2023-01-15T08:16:16;6.25;;;4.53;;
4021;SDS011;2025;48.260;16.432;2023-01-15T08:18:43;6.90;;;3.97;;
4021;SDS011;2025;48.260;16.432;2023-01-15T08:21:14;6.93;;;5.00;;
4021;SDS011;2025;48.260;16.432;2023-01-15T08:23:42;8.30;;;4.15;;
4021;SDS011;2025;48.260;16.432;2023-01-15T08:26:11;7.72;;;3.45;;
4021;SDS011;2025;48.260;16.432;2023-01-15T08:28:38;9.07;;;4.03;;
4021;SDS011;2025;48.260;16.432;2023-01-15T08:31:06;6.82;;;3.92;;
4021;SDS011;2025;48.260;16.432;2023-01-15T08:33:33;8.63;;;5.30;;
4021;SDS011;2025;48.260;16.432;2023-01-15T08:36:01;8.13;;;4.55;;
4021;SDS011;2025;48.260;16.432;2023-01-15T08:38:28;8.10;;;4.10;;
4021;SDS011;2025;48.260;16.432;2023-01-15T08:40:57;6.47;;;4.47;;
4021;SDS011;2025;48.260;16.432;2023-01-15T08:43:24;6.70;;;4.15;;
4021;SDS011;2025;48.260;16.432;2023-01-15T08:45:51;6.95;;;5.03;;
4021;SDS011;2025;48.260;16.432;2023-01-15T08:48:18;6.90;;;3.38;;
4021;SDS011;2025;48.260;16.432;2023-01-15T08:50:45;7.68;;;3.97;;
4021;SDS011;2025;48.260;16.432;2023-01-15T08:53:12;8.60;;;4.80;;
4021;SDS011;2025;48.260;16.432;2023-01-15T08:55:39;6.68;;;4.32;;
4021;SDS011;2025;48.260;16.432;2023-01-15T08:58:08;6.80;;;4.05;;
4021;SDS011;2025;48.260;16.432;2023-01-15T09:00:35;8.18;;;4.70;;
4021;SDS011;2025;48.260;16.432;2023-01-15T09:03:01;5.97;;;4.20;;
4021;SDS011;2025;48.260;16.432;2023-01-15T09:05:29;7.90;;;3.97;;
4021;SDS011;2025;48.260;16.432;2023-01-15T09:07:56;7.10;;;4.68;;
4021;SDS011;2025;48.260;16.432;2023-01-15T09:10:23;5.60;;;2.53;;
4021;SDS011;2025;48.260;16.432;2023-01-15T09:12:53;8.07;;;4.30;;
4021;SDS011;2025;48.260;16.432;2023-01-15T09:15:21;6.95;;;4.03;;
4021;SDS011;2025;48.260;16.432;2023-01-15T09:17:48;8.25;;;3.78;;
4021;SDS011;2025;48.260;16.432;2023-01-15T09:20:15;9.68;;;4.82;;
4021;SDS011;2025;48.260;16.432;2023-01-15T09:22:42;7.18;;;4.53;;
4021;SDS011;2025;48.260;16.432;2023-01-15T09:25:09;7.72;;;5.78;;
4021;SDS011;2025;48.260;16.432;2023-01-15T09:27:36;6.90;;;4.15;;
4021;SDS011;2025;48.260;16.432;2023-01-15T09:30:04;7.25;;;4.53;;
4021;SDS011;2025;48.260;16.432;2023-01-15T09:32:33;5.63;;;4.05;;
4021;SDS011;2025;48.260;16.432;2023-01-15T09:35:00;8.18;;;5.20;;
4021;SDS011;2025;48.260;16.432;2023-01-15T09:37:27;5.75;;;3.80;;
4021;SDS011;2025;48.260;16.432;2023-01-15T09:39:54;7.90;;;4.05;;
4021;SDS011;2025;48.260;16.432;2023-01-15T09:42:25;6.10;;;4.07;;
4021;SDS011;2025;48.260;16.432;2023-01-15T09:45:13;7.07;;;3.58;;
4021;SDS011;2025;48.260;16.432;2023-01-15T09:47:51;6.72;;;4.72;;
4021;SDS011;2025;48.260;16.432;2023-01-15T09:50:26;8.18;;;4.22;;
4021;SDS011;2025;48.260;16.432;2023-01-15T09:53:09;9.52;;;3.78;;
4021;SDS011;2025;48.260;16.432;2023-01-15T09:55:48;6.40;;;3.55;;
4021;SDS011;2025;48.260;16.432;2023-01-15T09:58:19;6.57;;;4.95;;
4021;SDS011;2025;48.260;16.432;2023-01-15T10:00:58;7.13;;;3.50;;
4021;SDS011;2025;48.260;16.432;2023-01-15T10:03:28;6.45;;;4.05;;
4021;SDS011;2025;48.260;16.432;2023-01-15T10:06:03;8.13;;;5.05;;
4021;SDS011;2025;48.260;16.432;2023-01-15T10:08:39;6.75;;;3.67;;
4021;SDS011;2025;48.260;16.432;2023-01-15T10:11:20;7.68;;;4.75;;
4021;SDS011;2025;48.260;16.432;2023-01-15T10:14:16;7.15;;;3.65;;
4021;SDS011;2025;48.260;16.432;2023-01-15T10:16:56;6.70;;;3.53;;
4021;SDS011;2025;48.260;16.432;2023-01-15T10:19:25;7.68;;;4.57;;
4021;SDS011;2025;48.260;16.432;2023-01-15T10:21:53;6.68;;;2.05;;
4021;SDS011;2025;48.260;16.432;2023-01-15T10:24:26;7.20;;;4.90;;
4021;SDS011;2025;48.260;16.432;2023-01-15T10:27:00;8.15;;;5.40;;
4021;SDS011;2025;48.260;16.432;2023-01-15T10:29:40;6.90;;;4.22;;
4021;SDS011;2025;48.260;16.432;2023-01-15T10:32:15;8.73;;;4.32;;
4021;SDS011;2025;48.260;16.432;2023-01-15T10:37:48;9.75;;;4.97;;
4021;SDS011;2025;48.260;16.432;2023-01-15T10:42:55;8.98;;;3.72;;
4021;SDS011;2025;48.260;16.432;2023-01-15T10:45:31;6.40;;;3.65;;
4021;SDS011;2025;48.260;16.432;2023-01-15T10:48:03;7.07;;;4.50;;
4021;SDS011;2025;48.260;16.432;2023-01-15T10:50:38;9.25;;;4.80;;
4021;SDS011;2025;48.260;16.432;2023-01-15T10:53:06;7.03;;;3.70;;
4021;SDS011;2025;48.260;16.432;2023-01-15T10:55:40;6.90;;;4.13;;
4021;SDS011;2025;48.260;16.432;2023-01-15T10:58:12;7.13;;;4.43;;
4021;SDS011;2025;48.260;16.432;2023-01-15T11:00:45;8.00;;;5.07;;
4021;SDS011;2025;48.260;16.432;2023-01-15T11:03:18;7.53;;;5.05;;
4021;SDS011;2025;48.260;16.432;2023-01-15T11:05:49;7.03;;;3.95;;
4021;SDS011;2025;48.260;16.432;2023-01-15T11:08:19;7.65;;;3.95;;
4021;SDS011;2025;48.260;16.432;2023-01-15T11:10:50;6.18;;;4.35;;
4021;SDS011;2025;48.260;16.432;2023-01-15T11:13:19;7.85;;;5.32;;
4021;SDS011;2025;48.260;16.432;2023-01-15T11:16:05;11.60;;;4.43;;
4021;SDS011;2025;48.260;16.432;2023-01-15T11:18:59;7.07;;;5.53;;
4021;SDS011;2025;48.260;16.432;2023-01-15T11:21:47;7.78;;;4.25;;
4021;SDS011;2025;48.260;16.432;2023-01-15T11:24:15;8.80;;;4.90;;
4021;SDS011;2025;48.260;16.432;2023-01-15T11:26:44;10.02;;;3.70;;
4021;SDS011;2025;48.260;16.432;2023-01-15T11:29:14;8.75;;;3.80;;
4021;SDS011;2025;48.260;16.432;2023-01-15T11:31:47;8.25;;;3.20;;
4021;SDS011;2025;48.260;16.432;2023-01-15T11:34:17;9.18;;;5.05;;
4021;SDS011;2025;48.260;16.432;2023-01-15T11:36:47;6.78;;;4.53;;
4021;SDS011;2025;48.260;16.432;2023-01-15T11:39:21;7.57;;;4.78;;
4021;SDS011;2025;48.260;16.432;2023-01-15T11:41:56;10.02;;;4.85;;
4021;SDS011;2025;48.260;16.432;2023-01-15T11:44:49;9.15;;;5.28;;
4021;SDS011;2025;48.260;16.432;2023-01-15T11:47:34;7.13;;;4.05;;
4021;SDS011;2025;48.260;16.432;2023-01-15T11:50:18;8.63;;;5.82;;
4021;SDS011;2025;48.260;16.432;2023-01-15T11:53:05;9.77;;;5.05;;
4021;SDS011;2025;48.260;16.432;2023-01-15T11:55:34;7.93;;;4.95;;
4021;SDS011;2025;48.260;16.432;2023-01-15T11:58:01;10.27;;;4.72;;
4021;SDS011;2025;48.260;16.432;2023-01-15T12:00:29;8.65;;;5.32;;
4021;SDS011;2025;48.260;16.432;2023-01-15T12:03:12;8.10;;;4.75;;
4021;SDS011;2025;48.260;16.432;2023-01-15T12:05:44;10.48;;;5.75;;
4021;SDS011;2025;48.260;16.432;2023-01-15T12:08:17;7.68;;;4.65;;
4021;SDS011;2025;48.260;16.432;2023-01-15T12:10:57;8.15;;;5.07;;
4021;SDS011;2025;48.260;16.432;2023-01-15T12:13:32;8.25;;;4.72;;
4021;SDS011;2025;48.260;16.432;2023-01-15T12:16:08;7.50;;;4.32;;
4021;SDS011;2025;48.260;16.432;2023-01-15T12:18:52;8.57;;;4.57;;
4021;SDS011;2025;48.260;16.432;2023-01-15T12:21:44;7.15;;;3.17;;
4021;SDS011;2025;48.260;16.432;2023-01-15T12:24:30;9.23;;;5.15;;
4021;SDS011;2025;48.260;16.432;2023-01-15T12:27:10;8.40;;;5.30;;
4021;SDS011;2025;48.260;16.432;2023-01-15T12:29:47;8.98;;;4.65;;
4021;SDS011;2025;48.260;16.432;2023-01-15T12:32:20;7.82;;;4.88;;
4021;SDS011;2025;48.260;16.432;2023-01-15T12:34:54;7.85;;;4.55;;
4021;SDS011;2025;48.260;16.432;2023-01-15T12:37:26;8.15;;;4.95;;
4021;SDS011;2025;48.260;16.432;2023-01-15T12:40:01;7.85;;;5.18;;
4021;SDS011;2025;48.260;16.432;2023-01-15T12:42:41;8.45;;;5.00;;
4021;SDS011;2025;48.260;16.432;2023-01-15T12:45:28;12.25;;;5.70;;
4021;SDS011;2025;48.260;16.432;2023-01-15T12:48:01;8.02;;;4.45;;
4021;SDS011;2025;48.260;16.432;2023-01-15T12:50:37;9.30;;;4.78;;
4021;SDS011;2025;48.260;16.432;2023-01-15T12:53:11;8.27;;;4.68;;
4021;SDS011;2025;48.260;16.432;2023-01-15T12:55:44;9.82;;;6.03;;
4021;SDS011;2025;48.260;16.432;2023-01-15T12:58:20;8.82;;;5.45;;
4021;SDS011;2025;48.260;16.432;2023-01-15T13:01:02;9.88;;;5.65;;
4021;SDS011;2025;48.260;16.432;2023-01-15T13:03:33;10.10;;;5.35;;
4021;SDS011;2025;48.260;16.432;2023-01-15T13:06:13;12.38;;;6.75;;
4021;SDS011;2025;48.260;16.432;2023-01-15T13:08:45;11.73;;;4.15;;
4021;SDS011;2025;48.260;16.432;2023-01-15T13:11:22;8.73;;;6.03;;
4021;SDS011;2025;48.260;16.432;2023-01-15T13:13:49;11.65;;;6.20;;
4021;SDS011;2025;48.260;16.432;2023-01-15T13:16:25;11.68;;;5.80;;
4021;SDS011;2025;48.260;16.432;2023-01-15T13:19:05;8.27;;;5.50;;
4021;SDS011;2025;48.260;16.432;2023-01-15T13:21:43;8.30;;;5.55;;
4021;SDS011;2025;48.260;16.432;2023-01-15T13:24:24;12.80;;;6.50;;
4021;SDS011;2025;48.260;16.432;2023-01-15T13:27:08;24.05;;;12.48;;
4021;SDS011;2025;48.260;16.432;2023-01-15T13:29:50;28.38;;;11.60;;
4021;SDS011;2025;48.260;16.432;2023-01-15T13:32:37;10.68;;;7.13;;
4021;SDS011;2025;48.260;16.432;2023-01-15T13:35:10;9.65;;;5.50;;
4021;SDS011;2025;48.260;16.432;2023-01-15T13:37:41;18.40;;;8.77;;
4021;SDS011;2025;48.260;16.432;2023-01-15T13:40:13;10.23;;;5.30;;
4021;SDS011;2025;48.260;16.432;2023-01-15T13:42:48;14.57;;;9.00;;
4021;SDS011;2025;48.260;16.432;2023-01-15T13:45:20;9.85;;;6.22;;
4021;SDS011;2025;48.260;16.432;2023-01-15T13:47:53;9.60;;;5.47;;
4021;SDS011;2025;48.260;16.432;2023-01-15T13:50:25;10.68;;;3.65;;
4021;SDS011;2025;48.260;16.432;2023-01-15T13:52:59;11.80;;;6.63;;
4021;SDS011;2025;48.260;16.432;2023-01-15T13:55:30;8.35;;;4.88;;
4021;SDS011;2025;48.260;16.432;2023-01-15T13:57:59;13.15;;;5.78;;
4021;SDS011;2025;48.260;16.432;2023-01-15T14:00:28;12.23;;;7.18;;
4021;SDS011;2025;48.260;16.432;2023-01-15T14:02:56;11.38;;;6.63;;
4021;SDS011;2025;48.260;16.432;2023-01-15T14:05:26;16.20;;;7.90;;
4021;SDS011;2025;48.260;16.432;2023-01-15T14:07:56;18.38;;;7.38;;
4021;SDS011;2025;48.260;16.432;2023-01-15T14:10:25;10.40;;;5.25;;
4021;SDS011;2025;48.260;16.432;2023-01-15T14:13:12;17.58;;;9.23;;
4021;SDS011;2025;48.260;16.432;2023-01-15T14:16:07;16.75;;;7.80;;
4021;SDS011;2025;48.260;16.432;2023-01-15T14:21:35;14.15;;;6.32;;
4021;SDS011;2025;48.260;16.432;2023-01-15T14:27:29;13.93;;;6.43;;
4021;SDS011;2025;48.260;16.432;2023-01-15T14:30:15;14.80;;;6.82;;
4021;SDS011;2025;48.260;16.432;2023-01-15T14:32:58;17.45;;;7.70;;
4021;SDS011;2025;48.260;16.432;2023-01-15T14:35:35;12.30;;;6.53;;
4021;SDS011;2025;48.260;16.432;2023-01-15T14:38:07;15.93;;;9.55;;
4021;SDS011;2025;48.260;16.432;2023-01-15T14:40:47;16.20;;;8.05;;
4021;SDS011;2025;48.260;16.432;2023-01-15T14:43:20;15.02;;;7.32;;
4021;SDS011;2025;48.260;16.432;2023-01-15T14:45:50;21.13;;;10.52;;
4021;SDS011;2025;48.260;16.432;2023-01-15T14:48:18;13.07;;;6.93;;
4021;SDS011;2025;48.260;16.432;2023-01-15T14:50:46;17.75;;;8.18;;
4021;SDS011;2025;48.260;16.432;2023-01-15T14:56:04;12.38;;;7.13;;
4021;SDS011;2025;48.260;16.432;2023-01-15T14:58:41;12.70;;;6.53;;
4021;SDS011;2025;48.260;16.432;2023-01-15T15:01:23;11.48;;;7.57;;
4021;SDS011;2025;48.260;16.432;2023-01-15T15:03:59;10.95;;;7.13;;
4021;SDS011;2025;48.260;16.432;2023-01-15T15:06:45;12.18;;;5.85;;
4021;SDS011;2025;48.260;16.432;2023-01-15T15:09:18;12.65;;;7.60;;
4021;SDS011;2025;48.260;16.432;2023-01-15T15:11:52;11.57;;;7.00;;
4021;SDS011;2025;48.260;16.432;2023-01-15T15:14:40;12.35;;;8.07;;
4021;SDS011;2025;48.260;16.432;2023-01-15T15:17:16;10.23;;;6.78;;
4021;SDS011;2025;48.260;16.432;2023-01-15T15:19:47;13.02;;;7.35;;
4021;SDS011;2025;48.260;16.432;2023-01-15T15:22:21;13.85;;;8.27;;
4021;SDS011;2025;48.260;16.432;2023-01-15T15:24:55;15.02;;;8.15;;
4021;SDS011;2025;48.260;16.432;2023-01-15T15:27:23;12.10;;;6.15;;
4021;SDS011;2025;48.260;16.432;2023-01-15T15:29:50;10.80;;;6.97;;
4021;SDS011;2025;48.260;16.432;2023-01-15T15:32:30;13.25;;;6.40;;
4021;SDS011;2025;48.260;16.432;2023-01-15T15:35:04;12.35;;;7.47;;
4021;SDS011;2025;48.260;16.432;2023-01-15T15:37:43;14.10;;;6.75;;
4021;SDS011;2025;48.260;16.432;2023-01-15T15:40:13;15.23;;;7.55;;
4021;SDS011;2025;48.260;16.432;2023-01-15T15:42:43;10.27;;;6.13;;
4021;SDS011;2025;48.260;16.432;2023-01-15T15:45:33;10.45;;;5.80;;
4021;SDS011;2025;48.260;16.432;2023-01-15T15:48:19;14.10;;;7.55;;
4021;SDS011;2025;48.260;16.432;2023-01-15T15:51:05;10.35;;;7.20;;
4021;SDS011;2025;48.260;16.432;2023-01-15T15:53:49;11.13;;;6.90;;
4021;SDS011;2025;48.260;16.432;2023-01-15T15:56:16;12.55;;;6.60;;
4021;SDS011;2025;48.260;16.432;2023-01-15T15:58:43;14.40;;;8.27;;
4021;SDS011;2025;48.260;16.432;2023-01-15T16:01:12;13.25;;;8.55;;
4021;SDS011;2025;48.260;16.432;2023-01-15T16:03:45;15.02;;;7.13;;
4021;SDS011;2025;48.260;16.432;2023-01-15T16:06:17;10.70;;;7.35;;
4021;SDS011;2025;48.260;16.432;2023-01-15T16:08:51;13.52;;;7.68;;
4021;SDS011;2025;48.260;16.432;2023-01-15T16:11:18;16.08;;;8.80;;
4021;SDS011;2025;48.260;16.432;2023-01-15T16:13:48;14.05;;;8.60;;
4021;SDS011;2025;48.260;16.432;2023-01-15T16:16:17;11.98;;;6.57;;
4021;SDS011;2025;48.260;16.432;2023-01-15T16:18:47;10.07;;;4.50;;
4021;SDS011;2025;48.260;16.432;2023-01-15T16:21:17;9.05;;;6.45;;
4021;SDS011;2025;48.260;16.432;2023-01-15T16:23:55;8.50;;;5.53;;
4021;SDS011;2025;48.260;16.432;2023-01-15T16:26:27;10.85;;;6.75;;
4021;SDS011;2025;48.260;16.432;2023-01-15T16:28:57;10.90;;;9.00;;
4021;SDS011;2025;48.260;16.432;2023-01-15T16:31:31;13.70;;;7.15;;
4021;SDS011;2025;48.260;16.432;2023-01-15T16:34:00;12.65;;;7.55;;
4021;SDS011;2025;48.260;16.432;2023-01-15T16:36:36;13.40;;;6.53;;
4021;SDS011;2025;48.260;16.432;2023-01-15T16:39:04;12.75;;;6.95;;
4021;SDS011;2025;48.260;16.432;2023-01-15T16:41:36;13.10;;;6.55;;
4021;SDS011;2025;48.260;16.432;2023-01-15T16:44:06;13.93;;;8.35;;
4021;SDS011;2025;48.260;16.432;2023-01-15T16:46:48;15.02;;;7.93;;
4021;SDS011;2025;48.260;16.432;2023-01-15T16:49:25;12.40;;;9.05;;
4021;SDS011;2025;48.260;16.432;2023-01-15T16:51:54;12.68;;;7.63;;
4021;SDS011;2025;48.260;16.432;2023-01-15T16:54:44;9.98;;;7.10;;
4021;SDS011;2025;48.260;16.432;2023-01-15T16:57:25;9.45;;;6.03;;
4021;SDS011;2025;48.260;16.432;2023-01-15T16:59:55;10.98;;;6.80;;
4021;SDS011;2025;48.260;16.432;2023-01-15T17:02:24;10.27;;;6.47;;
4021;SDS011;2025;48.260;16.432;2023-01-15T17:05:01;8.50;;;6.43;;
4021;SDS011;2025;48.260;16.432;2023-01-15T17:07:42;9.82;;;5.50;;
4021;SDS011;2025;48.260;16.432;2023-01-15T17:10:18;7.35;;;4.88;;
4021;SDS011;2025;48.260;16.432;2023-01-15T17:12:47;6.88;;;4.35;;
4021;SDS011;2025;48.260;16.432;2023-01-15T17:18:17;10.25;;;5.75;;
4021;SDS011;2025;48.260;16.432;2023-01-15T17:20:48;9.50;;;7.03;;
4021;SDS011;2025;48.260;16.432;2023-01-15T17:23:15;8.13;;;4.80;;
4021;SDS011;2025;48.260;16.432;2023-01-15T17:25:46;8.48;;;6.35;;
4021;SDS011;2025;48.260;16.432;2023-01-15T17:28:13;7.47;;;5.07;;
4021;SDS011;2025;48.260;16.432;2023-01-15T17:30:43;5.65;;;3.55;;
4021;SDS011;2025;48.260;16.432;2023-01-15T17:33:12;7.78;;;4.97;;
4021;SDS011;2025;48.260;16.432;2023-01-15T17:35:40;6.15;;;3.75;;
4021;SDS011;2025;48.260;16.432;2023-01-15T17:38:09;7.13;;;4.28;;
4021;SDS011;2025;48.260;16.432;2023-01-15T17:40:38;6.85;;;4.30;;
4021;SDS011;2025;48.260;16.432;2023-01-15T17:43:05;7.95;;;4.88;;
4021;SDS011;2025;48.260;16.432;2023-01-15T17:45:33;5.28;;;4.05;;
4021;SDS011;2025;48.260;16.432;2023-01-15T17:48:00;5.75;;;3.88;;
4021;SDS011;2025;48.260;16.432;2023-01-15T17:50:28;5.65;;;3.45;;
4021;SDS011;2025;48.260;16.432;2023-01-15T17:52:55;5.65;;;3.35;;
4021;SDS011;2025;48.260;16.432;2023-01-15T17:55:24;5.00;;;2.88;;
4021;SDS011;2025;48.260;16.432;2023-01-15T17:58:08;4.88;;;2.92;;
4021;SDS011;2025;48.260;16.432;2023-01-15T18:00:54;4.78;;;2.97;;
4021;SDS011;2025;48.260;16.432;2023-01-15T18:03:41;4.45;;;2.47;;
4021;SDS011;2025;48.260;16.432;2023-01-15T18:06:27;4.03;;;2.75;;
4021;SDS011;2025;48.260;16.432;2023-01-15T18:08:54;5.78;;;3.72;;
4021;SDS011;2025;48.260;16.432;2023-01-15T18:11:25;4.53;;;3.15;;
4021;SDS011;2025;48.260;16.432;2023-01-15T18:13:52;4.68;;;2.55;;
4021;SDS011;2025;48.260;16.432;2023-01-15T18:16:20;3.13;;;0.90;;
4021;SDS011;2025;48.260;16.432;2023-01-15T18:18:47;3.83;;;2.30;;
4021;SDS011;2025;48.260;16.432;2023-01-15T18:21:14;3.72;;;2.92;;
4021;SDS011;2025;48.260;16.432;2023-01-15T18:23:41;4.03;;;2.80;;
4021;SDS011;2025;48.260;16.432;2023-01-15T18:26:08;3.03;;;1.98;;
4021;SDS011;2025;48.260;16.432;2023-01-15T18:28:36;4.50;;;2.83;;
4021;SDS011;2025;48.260;16.432;2023-01-15T18:31:04;2.83;;;2.08;;
4021;SDS011;2025;48.260;16.432;2023-01-15T18:33:32;3.90;;;2.80;;
4021;SDS011;2025;48.260;16.432;2023-01-15T18:36:02;3.53;;;2.25;;
4021;SDS011;2025;48.260;16.432;2023-01-15T18:38:32;2.70;;;1.42;;
4021;SDS011;2025;48.260;16.432;2023-01-15T18:41:04;3.30;;;2.15;;
4021;SDS011;2025;48.260;16.432;2023-01-15T18:46:18;2.47;;;1.92;;
4021;SDS011;2025;48.260;16.432;2023-01-15T18:49:02;3.40;;;2.47;;
4021;SDS011;2025;48.260;16.432;2023-01-15T18:51:29;2.67;;;1.48;;
4021;SDS011;2025;48.260;16.432;2023-01-15T18:53:57;2.70;;;2.10;;
4021;SDS011;2025;48.260;16.432;2023-01-15T18:56:24;1.80;;;0.50;;
4021;SDS011;2025;48.260;16.432;2023-01-15T18:59:08;2.70;;;1.90;;
4021;SDS011;2025;48.260;16.432;2023-01-15T19:01:38;3.00;;;1.80;;
4021;SDS011;2025;48.260;16.432;2023-01-15T19:04:06;3.88;;;2.47;;
4021;SDS011;2025;48.260;16.432;2023-01-15T19:06:35;3.13;;;2.25;;
4021;SDS011;2025;48.260;16.432;2023-01-15T19:09:02;3.20;;;2.20;;
4021;SDS011;2025;48.260;16.432;2023-01-15T19:11:30;3.63;;;2.28;;
4021;SDS011;2025;48.260;16.432;2023-01-15T19:13:57;3.00;;;2.08;;
4021;SDS011;2025;48.260;16.432;2023-01-15T19:16:42;2.63;;;1.60;;
4021;SDS011;2025;48.260;16.432;2023-01-15T19:19:35;2.63;;;1.73;;
4021;SDS011;2025;48.260;16.432;2023-01-15T19:22:02;1.90;;;0.50;;
4021;SDS011;2025;48.260;16.432;2023-01-15T19:24:46;3.08;;;2.25;;
4021;SDS011;2025;48.260;16.432;2023-01-15T19:27:13;2.90;;;1.77;;
4021;SDS011;2025;48.260;16.432;2023-01-15T19:29:40;3.38;;;2.15;;
4021;SDS011;2025;48.260;16.432;2023-01-15T19:32:09;3.20;;;1.48;;
4021;SDS011;2025;48.260;16.432;2023-01-15T19:34:36;3.28;;;1.92;;
4021;SDS011;2025;48.260;16.432;2023-01-15T19:37:03;3.40;;;1.95;;
4021;SDS011;2025;48.260;16.432;2023-01-15T19:39:31;2.42;;;1.70;;
4021;SDS011;2025;48.260;16.432;2023-01-15T19:41:58;3.45;;;2.22;;
4021;SDS011;2025;48.260;16.432;2023-01-15T19:44:42;3.60;;;2.28;;
4021;SDS011;2025;48.260;16.432;2023-01-15T19:47:28;3.50;;;3.17;;
4021;SDS011;2025;48.260;16.432;2023-01-15T19:53:40;3.20;;;1.42;;
4021;SDS011;2025;48.260;16.432;2023-01-15T20:18:47;3.25;;;2.33;;
4021;SDS011;2025;48.260;16.432;2023-01-15T20:40:34;2.05;;;0.65;;
4021;SDS011;2025;48.260;16.432;2023-01-15T20:43:01;2.15;;;0.90;;
4021;SDS011;2025;48.260;16.432;2023-01-15T20:45:46;1.45;;;0.35;;
4021;SDS011;2025;48.260;16.432;2023-01-15T20:48:12;2.40;;;0.63;;
4021;SDS011;2025;48.260;16.432;2023-01-15T20:53:00;1.80;;;0.52;;
4021;SDS011;2025;48.260;16.432;2023-01-15T20:55:29;1.88;;;0.32;;
4021;SDS011;2025;48.260;16.432;2023-01-15T20:57:58;2.78;;;0.75;;
4021;SDS011;2025;48.260;16.432;2023-01-15T21:00:25;2.20;;;0.30;;
4021;SDS011;2025;48.260;16.432;2023-01-15T21:02:53;2.20;;;0.35;;
4021;SDS011;2025;48.260;16.432;2023-01-15T21:05:22;1.73;;;0.47;;
4021;SDS011;2025;48.260;16.432;2023-01-15T21:07:49;1.50;;;0.22;;
4021;SDS011;2025;48.260;16.432;2023-01-15T21:10:18;1.55;;;0.65;;
4021;SDS011;2025;48.260;16.432;2023-01-15T21:39:54;1.95;;;0.52;;
